Time;durP1;ratioP1;P1;durP2;ratioP2;P2;SDS_P1;SDS_P2;PMS_P1;PMS_P2;Temp;Humidity;BMP_temperature;BMP_pressure;BME280_temperature;BME280_humidity;BME280_pressure;Samples;Min_cycle;Max_cycle;Signal;HPM_P1;HPM_P2
2022/06/18 00:01:33;;;;;;;;;;;;;;;20.78;nan;99990.47;5008002;28;20395;-73
2022/06/18 00:03:59;;;;;;;;;;;;;;;20.70;nan;99987.72;5008776;28;19968;-73
2022/06/18 00:06:24;;;;;;;;;;;;;;;20.63;nan;99998.19;5007610;28;20126;-73
2022/06/18 00:08:51;;;;;;;;;;;;;;;20.59;nan;99996.81;5008438;28;19964;-73
2022/06/18 00:14:00;;;;;;;;;;;;;;;20.45;nan;100000.81;4988372;28;20427;-74
2022/06/18 00:16:26;;;;;;;;;;;;;;;20.43;nan;100000.13;4996294;28;19995;-73
2022/06/18 00:18:52;;;;;;;;;;;;;;;20.42;nan;100002.97;5007595;28;19988;-73
2022/06/18 00:21:19;;;;;;;;;;;;;;;20.40;nan;100004.94;5008368;28;20422;-73
2022/06/18 00:23:44;;;;;;;;;;;;;;;20.38;nan;100005.06;5007734;28;20450;-73
2022/06/18 00:26:10;;;;;;;;;;;;;;;20.29;nan;100006.00;5008423;28;19972;-73
2022/06/18 00:28:36;;;;;;;;;;;;;;;20.15;nan;100003.84;5007514;28;20006;-72
2022/06/18 00:31:01;;;;;;;;;;;;;;;20.02;nan;100009.53;5007438;28;20059;-73
2022/06/18 00:33:27;;;;;;;;;;;;;;;19.84;nan;100004.13;4990089;28;20041;-72
2022/06/18 00:35:56;;;;;;;;;;;;;;;19.64;nan;100001.53;5006825;28;20200;-73
2022/06/18 00:38:26;;;;;;;;;;;;;;;19.49;nan;100000.31;5007893;28;19964;-73
2022/06/18 00:40:52;;;;;;;;;;;;;;;19.38;nan;100006.66;5007820;28;19995;-72
2022/06/18 00:43:27;;;;;;;5.20;4.70;;;;;;;19.31;nan;100005.56;4972627;28;20430;-72
2022/06/18 00:45:58;;;;;;;4.90;4.50;;;;;;;19.24;nan;100007.94;4989193;28;20236;-72
2022/06/18 00:48:37;;;;;;;4.43;4.03;;;;;;;19.18;nan;100010.34;5003369;28;20559;-72
2022/06/18 00:51:12;;;;;;;4.30;3.87;;;;;;;19.15;nan;100007.97;5007192;28;20477;-72
2022/06/18 00:53:46;;;;;;;4.77;4.37;;;;;;;19.21;nan;100002.91;5007389;28;20517;-72
2022/06/18 00:56:24;;;;;;;4.60;4.20;;;;;;;19.28;nan;100011.19;4990052;28;20461;-72
2022/06/18 00:59:02;;;;;;;6.60;5.03;;;;;;;19.33;nan;100002.75;5006954;28;20471;-72
2022/06/18 01:01:34;;;;;;;6.80;4.77;;;;;;;19.39;nan;100004.84;4992259;28;20820;-72
2022/06/18 01:03:59;;;;;;;3.80;3.50;;;;;;;19.45;nan;100007.75;4989206;28;20451;-72
2022/06/18 01:06:29;;;;;;;5.60;4.20;;;;;;;19.52;nan;99996.50;5007384;28;20453;-73
2022/06/18 01:09:03;;;;;;;3.70;3.40;;;;;;;19.58;nan;99993.28;5007387;28;20200;-73
2022/06/18 01:11:33;;;;;;;4.20;3.80;;;;;;;19.54;nan;99990.06;4990073;28;20471;-72
2022/06/18 01:14:01;;;;;;;5.17;4.77;;;;;;;19.51;nan;99993.00;4990498;28;20557;-72
2022/06/18 01:16:27;;;;;;;4.00;3.70;;;;;;;19.44;nan;99978.59;4994315;28;20890;-72
2022/06/18 01:18:53;;;;;;;4.97;4.50;;;;;;;19.41;nan;99973.56;4994300;28;20476;-73
2022/06/18 01:22:10;;;;;;;4.23;3.63;;;;;;;19.40;nan;99975.38;5002386;28;20231;-72
2022/06/18 01:24:41;;;;;;;4.33;3.67;;;;;;;19.40;nan;99977.22;4956900;28;20517;-72
2022/06/18 01:27:10;;;;;;;4.27;3.97;;;;;;;19.41;nan;99971.72;4957852;28;20486;-74
2022/06/18 01:29:36;;;;;;;4.43;3.97;;;;;;;19.40;nan;99969.22;4964677;28;20540;-72
2022/06/18 01:32:03;;;;;;;5.77;5.07;;;;;;;19.38;nan;99974.69;4989674;28;20459;-73
2022/06/18 01:34:30;;;;;;;5.57;5.07;;;;;;;19.36;nan;99967.81;4988989;28;21002;-73
2022/06/18 01:36:59;;;;;;;4.10;3.80;;;;;;;19.34;nan;99960.00;5007063;28;20450;-73
2022/06/18 01:39:29;;;;;;;4.83;4.33;;;;;;;19.32;nan;99953.13;4988698;28;21066;-73
2022/06/18 01:42:03;;;;;;;4.00;3.70;;;;;;;19.26;nan;99943.06;4989420;28;20473;-73
2022/06/18 01:44:38;;;;;;;4.53;4.13;;;;;;;19.24;nan;99946.69;4995056;28;20486;-72
2022/06/18 01:47:17;;;;;;;4.73;3.30;;;;;;;19.20;nan;99950.66;4992149;28;20459;-72
2022/06/18 01:50:10;;;;;;;5.47;5.07;;;;;;;19.15;nan;99946.75;4992403;28;20482;-72
2022/06/18 01:52:43;;;;;;;4.90;4.50;;;;;;;19.11;nan;99940.84;4999756;28;20479;-74
2022/06/18 01:55:18;;;;;;;4.80;4.00;;;;;;;19.09;nan;99944.63;4996956;28;20806;-74
2022/06/18 01:57:48;;;;;;;6.60;4.50;;;;;;;19.07;nan;99944.78;4989244;28;20469;-74
2022/06/18 02:00:19;;;;;;;4.17;3.80;;;;;;;19.07;nan;99946.63;4989074;28;21064;-73
2022/06/18 02:02:52;;;;;;;6.40;4.90;;;;;;;19.11;nan;99930.19;4985863;28;20475;-73
2022/06/18 02:05:18;;;;;;;4.33;3.63;;;;;;;;;;4986583;28;20269;-73
2022/06/18 02:07:45;;;;;;;4.60;4.23;;;;;;;19.18;nan;99933.97;5005952;28;20780;-73
2022/06/18 02:10:18;;;;;;;5.17;4.50;;;;;;;19.06;nan;99924.47;4987790;28;20481;-72
2022/06/18 02:12:45;;;;;;;5.53;5.07;;;;;;;18.90;nan;99926.88;4988528;28;20450;-73
2022/06/18 02:15:21;;;;;;;4.40;4.00;;;;;;;18.81;nan;99925.91;4989022;28;20485;-72
2022/06/18 02:17:48;;;;;;;4.70;4.30;;;;;;;18.77;nan;99925.38;5004166;28;20495;-73
2022/06/18 02:20:16;;;;;;;4.43;4.07;;;;;;;18.74;nan;99919.44;5005172;28;20848;-72
2022/06/18 02:22:45;;;;;;;5.57;3.93;;;;;;;18.74;nan;99922.09;5005459;28;20439;-73
2022/06/18 02:25:13;;;;;;;4.67;4.27;;;;;;;18.74;nan;99923.00;4988797;28;20475;-73
2022/06/18 02:27:40;;;;;;;5.37;4.90;;;;;;;18.74;nan;99916.78;5006195;28;21029;-73
2022/06/18 02:30:12;;;;;;;4.37;4.07;;;;;;;18.74;nan;99909.69;4987368;28;20879;-73
2022/06/18 02:32:48;;;;;;;4.53;3.83;;;;;;;18.77;nan;99904.09;5004962;28;20447;-73
2022/06/18 02:35:15;;;;;;;4.93;4.47;;;;;;;18.83;nan;99908.00;4987324;28;20441;-73
2022/06/18 02:37:41;;;;;;;4.33;4.03;;;;;;;18.85;nan;99902.50;5002245;28;20540;-74
2022/06/18 02:40:17;;;;;;;5.00;4.60;;;;;;;18.84;nan;99898.19;5005648;28;20799;-73
2022/06/18 02:42:42;;;;;;;5.10;4.63;;;;;;;18.83;nan;99894.69;5004823;28;20551;-73
2022/06/18 02:45:08;;;;;;;5.20;4.80;;;;;;;18.84;nan;99893.69;5005560;28;20525;-73
2022/06/18 02:47:34;;;;;;;5.73;4.40;;;;;;;18.87;nan;99897.88;5005736;28;20201;-74
2022/06/18 02:50:05;;;;;;;5.47;4.97;;;;;;;18.88;nan;99896.94;5005181;28;20217;-73
2022/06/18 02:52:54;;;;;;;4.57;4.17;;;;;;;18.89;nan;99903.91;5004734;23;20600;-86
2022/06/18 02:55:31;;;;;;;4.73;4.33;;;;;;;18.88;nan;99905.75;4953578;28;20482;-86
2022/06/18 02:58:17;;;;;;;4.70;4.07;;;;;;;18.74;nan;99901.72;4972006;28;20440;-86
2022/06/18 03:00:46;;;;;;;4.63;4.23;;;;;;;18.64;nan;99905.34;4971529;28;20493;-85
2022/06/18 03:03:14;;;;;;;5.77;4.23;;;;;;;18.48;nan;99911.22;4985438;28;21189;-87
2022/06/18 03:05:41;;;;;;;5.23;4.73;;;;;;;18.24;nan;99912.50;4970086;28;20428;-90
2022/06/18 03:08:06;;;;;;;6.50;4.43;;;;;;;18.05;nan;99913.31;4968339;28;20482;-87
2022/06/18 03:13:19;;;;;;;6.03;4.77;;;;;;;17.89;nan;99921.81;4968034;28;20457;-88
2022/06/18 03:15:54;;;;;;;5.43;4.67;;;;;;;17.89;nan;99920.97;4968755;28;20489;-90
2022/06/18 03:18:23;;;;;;;4.93;4.53;;;;;;;17.88;nan;99929.94;4968931;28;20922;-88
2022/06/18 03:20:54;;;;;;;4.87;4.47;;;;;;;17.90;nan;99930.63;4968098;28;21046;-89
2022/06/18 03:23:23;;;;;;;5.40;4.90;;;;;;;17.92;nan;99931.34;4967327;28;20466;-88
2022/06/18 03:25:50;;;;;;;5.63;5.10;;;;;;;17.98;nan;99935.25;4985430;28;20496;-88
2022/06/18 03:28:18;;;;;;;4.57;4.20;;;;;;;18.04;nan;99938.22;4985042;28;20449;-87
2022/06/18 03:30:43;;;;;;;5.63;4.90;;;;;;;18.11;nan;99944.66;4967549;28;20519;-88
2022/06/18 03:33:10;;;;;;;9.00;4.80;;;;;;;18.17;nan;99939.75;4985774;28;20537;-88
2022/06/18 03:35:38;;;;;;;5.53;4.97;;;;;;;18.23;nan;99944.56;4986245;28;20229;-89
2022/06/18 03:38:04;;;;;;;5.37;4.57;;;;;;;18.25;nan;99946.06;4987047;28;20443;-88
2022/06/18 03:40:29;;;;;;;5.00;4.57;;;;;;;18.28;nan;99947.59;4986442;28;20542;-88
2022/06/18 03:42:55;;;;;;;4.93;4.43;;;;;;;18.26;nan;99945.09;4986255;28;20544;-88
2022/06/18 03:45:25;;;;;;;19.83;6.00;;;;;;;18.26;nan;99944.25;4987009;28;20476;-89
2022/06/18 03:47:53;;;;;;;5.20;4.80;;;;;;;18.22;nan;99945.50;4987243;28;20551;-88
2022/06/18 03:50:20;;;;;;;5.57;4.80;;;;;;;18.15;nan;99947.91;4986098;28;20484;-87
2022/06/18 03:52:46;;;;;;;5.70;5.10;;;;;;;18.09;nan;99951.09;5003738;28;20480;-89
2022/06/18 03:55:16;;;;;;;6.33;5.73;;;;;;;18.04;nan;99956.81;4986338;28;20456;-89
2022/06/18 03:57:42;;;;;;;4.87;4.47;;;;;;;17.99;nan;99958.22;4985890;28;20864;-88
2022/06/18 04:00:16;;;;;;;6.10;5.60;;;;;;;17.97;nan;99954.84;4986638;28;20471;-88
2022/06/18 04:02:45;;;;;;;5.30;4.90;;;;;;;17.97;nan;99957.50;5002945;28;20427;-88
2022/06/18 04:05:14;;;;;;;5.97;5.37;;;;;;;18.05;nan;99960.31;4987827;28;20954;-89
2022/06/18 04:07:41;;;;;;;5.87;5.37;;;;;;;18.16;nan;99959.38;5007919;28;20446;-88
2022/06/18 04:10:08;;;;;;;5.50;5.03;;;;;;;18.29;nan;99955.47;5007074;28;20518;-88
2022/06/18 04:12:35;;;;;;;5.97;5.27;;;;;;;18.40;nan;99957.16;5005669;28;20467;-88
2022/06/18 04:15:08;;;;;;;6.07;5.57;;;;;;;18.48;nan;99951.97;5007337;28;20446;-89
2022/06/18 04:17:44;;;;;;;6.80;4.67;;;;;;;18.56;nan;99951.28;5002338;28;20552;-90
2022/06/18 04:20:21;;;;;;;5.60;5.10;;;;;;;18.63;nan;99956.84;5003459;28;20568;-88
2022/06/18 04:22:50;;;;;;;5.57;5.10;;;;;;;18.68;nan;99947.47;5005755;28;20484;-88
2022/06/18 04:25:17;;;;;;;5.80;5.37;;;;;;;18.74;nan;99957.59;5006278;28;20457;-88
2022/06/18 04:27:43;;;;;;;5.93;5.43;;;;;;;18.79;nan;99942.06;5005992;28;20465;-89
2022/06/18 04:30:11;;;;;;;6.73;5.90;;;;;;;18.89;nan;99942.00;5004953;28;20459;-88
2022/06/18 04:32:54;;;;;;;5.80;5.40;;;;;;;18.97;nan;99939.47;5005816;28;20438;-88
2022/06/18 04:35:21;;;;;;;5.83;5.27;;;;;;;19.07;nan;99936.81;4990253;28;21026;-88
2022/06/18 04:38:02;;;;;;;6.07;5.30;;;;;;;19.15;nan;99938.75;4990842;28;20439;-87
2022/06/18 04:40:51;;;;;;;5.30;4.80;;;;;;;19.14;nan;99939.72;5004035;28;20523;-88
2022/06/18 04:43:21;;;;;;;5.77;5.30;;;;;;;19.02;nan;99939.88;4976314;28;20889;-88
2022/06/18 04:45:55;;;;;;;5.20;4.80;;;;;;;18.93;nan;99943.44;4989492;28;21154;-88
2022/06/18 04:48:28;;;;;;;6.87;5.50;;;;;;;18.90;nan;99937.53;4988956;28;20457;-88
2022/06/18 04:50:57;;;;;;;4.97;4.53;;;;;;;18.96;nan;99939.63;4989643;28;20603;-87
2022/06/18 04:53:22;;;;;;;5.73;5.20;;;;;;;19.15;nan;99931.59;4989166;28;20445;-88
2022/06/18 04:55:57;;;;;;;5.50;4.60;;;;;;;19.34;nan;99929.84;4990589;28;20705;-88
2022/06/18 04:58:26;;;;;;;5.80;5.30;;;;;;;19.57;nan;99925.81;4990374;28;20472;-88
2022/06/18 05:00:59;;;;;;;6.20;5.60;;;;;;;19.88;nan;99925.53;4990177;28;20473;-88
2022/06/18 05:03:43;;;;;;;5.10;4.60;;;;;;;20.29;nan;99920.63;5005977;28;20815;-87
2022/06/18 05:06:17;;;;;;;5.40;4.97;;;;;;;20.73;nan;99915.34;4989761;28;20466;-88
2022/06/18 05:09:03;;;;;;;5.40;5.00;;;;;;;21.23;nan;99919.19;4988870;28;20765;-89
2022/06/18 05:12:04;;;;;;;6.40;5.80;;;;;;;21.68;nan;99916.22;4984377;28;20595;-87
2022/06/18 05:14:55;;;;;;;8.03;6.27;;;;;;;21.96;nan;99913.31;4994358;28;20460;-87
2022/06/18 05:17:32;;;;;;;7.00;6.40;;;;;;;22.24;nan;99911.22;4988211;28;21006;-89
2022/06/18 05:19:58;;;;;;;7.80;7.00;;;;;;;22.55;nan;99914.09;4988906;28;21037;-88
2022/06/18 05:22:24;;;;;;;13.80;7.27;;;;;;;22.89;nan;99908.50;4988271;28;20501;-87
2022/06/18 05:25:01;;;;;;;11.10;6.40;;;;;;;23.23;nan;99899.44;4988410;28;20567;-88
2022/06/18 05:27:30;;;;;;;7.80;7.00;;;;;;;23.54;nan;99904.84;4988680;28;20443;-87
2022/06/18 05:30:00;;;;;;;7.70;6.50;;;;;;;23.76;nan;99897.91;4988056;28;21242;-89
2022/06/18 05:32:36;;;;;;;7.57;6.87;;;;;;;23.99;nan;99900.63;4988137;28;20453;-88
2022/06/18 05:35:02;;;;;;;7.40;6.80;;;;;;;24.20;nan;99889.25;5006013;28;20462;-90
2022/06/18 05:37:30;;;;;;;10.03;7.50;;;;;;;24.37;nan;99886.44;4996755;28;20210;-86
2022/06/18 05:39:56;;;;;;;7.40;6.70;;;;;;;24.63;nan;99886.06;5002159;28;20865;-89
2022/06/18 05:42:22;;;;;;;7.50;6.80;;;;;;;24.81;nan;99875.81;4973237;28;20540;-86
2022/06/18 05:44:48;;;;;;;7.13;6.43;;;;;;;25.02;nan;99867.03;5006561;28;20292;-87
2022/06/18 05:47:19;;;;;;;7.57;6.90;;;;;;;25.25;nan;99866.97;4995466;28;20279;-89
2022/06/18 05:49:44;;;;;;;7.47;6.77;;;;;;;25.52;nan;99869.97;5005887;28;20465;-87
2022/06/18 05:52:10;;;;;;;7.13;6.43;;;;;;;25.85;nan;99872.28;5009599;28;20527;-87
2022/06/18 05:54:36;;;;;;;7.23;6.63;;;;;;;26.24;nan;99869.13;4992308;28;20655;-88
2022/06/18 05:57:28;;;;;;;6.53;6.00;;;;;;;26.61;nan;99867.22;4999221;28;20450;-86
2022/06/18 06:00:20;;;;;;;5.87;5.37;;;;;;;26.89;nan;99872.56;5009624;28;20470;-88
2022/06/18 06:02:48;;;;;;;6.90;5.10;;;;;;;27.11;nan;99860.72;5009969;28;20507;-87
2022/06/18 06:05:15;;;;;;;7.00;6.40;;;;;;;27.29;nan;99853.97;5007292;28;20448;-88
2022/06/18 06:07:44;;;;;;;5.87;5.47;;;;;;;27.43;nan;99855.69;5009201;28;20258;-88
2022/06/18 06:13:04;;;;;;;5.27;4.80;;;;;;;27.75;nan;99847.91;5004887;28;20561;-87
2022/06/18 06:15:30;;;;;;;5.17;4.77;;;;;;;28.00;nan;99853.59;5005633;28;20525;-87
2022/06/18 06:17:55;;;;;;;6.40;5.27;;;;;;;28.11;nan;99852.16;4978040;28;21022;-87
2022/06/18 06:20:31;;;;;;;6.50;5.50;;;;;;;28.18;nan;99847.59;5010230;28;20501;-87
2022/06/18 06:22:57;;;;;;;5.60;5.10;;;;;;;28.09;nan;99846.97;5012776;28;20282;-90
2022/06/18 06:25:23;;;;;;;7.50;5.10;;;;;;;28.28;nan;99849.91;5021870;28;20435;-88
2022/06/18 06:27:48;;;;;;;5.00;4.57;;;;;;;28.49;nan;99847.03;5024442;28;20439;-88
2022/06/18 06:30:17;;;;;;;4.97;4.57;;;;;;;28.54;nan;99847.19;5027039;28;20276;-88
2022/06/18 06:32:46;;;;;;;7.30;6.50;;;;;;;28.74;nan;99849.06;4999490;28;20256;-88
2022/06/18 06:35:12;;;;;;;5.30;4.90;;;;;;;29.04;nan;99844.06;5009252;28;20550;-88
2022/06/18 06:37:41;;;;;;;4.70;4.30;;;;;;;29.14;nan;99849.84;5013080;28;20560;-86
2022/06/18 06:40:08;;;;;;;5.30;4.90;;;;;;;29.27;nan;99843.53;5005869;28;20452;-88
2022/06/18 06:42:50;;;;;;;5.20;4.80;;;;;;;29.45;nan;99845.56;5006360;28;20290;-87
2022/06/18 06:45:23;;;;;;;5.57;4.80;;;;;;;29.72;nan;99846.28;5012103;28;20443;-88
2022/06/18 06:47:50;;;;;;;5.63;5.13;;;;;;;29.89;nan;99847.41;5001754;28;20526;-88
2022/06/18 06:50:17;;;;;;;5.10;4.60;;;;;;;30.08;nan;99850.22;4987751;28;20510;-89
2022/06/18 06:52:44;;;;;;;5.30;4.90;;;;;;;30.32;nan;99843.19;5008434;28;20476;-89
2022/06/18 06:58:04;;;;;;;5.13;4.80;;;;;;;31.02;nan;99838.38;5021253;28;20450;-86
2022/06/18 07:00:33;;;;;;;5.33;4.63;;;;;;;31.23;nan;99837.09;5023252;28;20447;-89
2022/06/18 07:02:59;;;;;;;6.32;5.72;;;;;;;31.16;nan;99830.91;5024030;28;20499;-89
2022/06/18 07:05:24;;;;;;;5.43;4.87;;;;;;;30.86;nan;99836.25;5024193;28;20220;-89
2022/06/18 07:07:50;;;;;;;6.00;5.57;;;;;;;30.97;nan;99832.78;5025790;28;20250;-90
2022/06/18 07:10:16;;;;;;;5.07;4.67;;;;;;;31.19;nan;99829.63;5024769;28;20428;-89
2022/06/18 07:12:46;;;;;;;6.80;5.40;;;;;;;31.52;nan;99835.50;5023686;28;20219;-89
2022/06/18 07:15:12;;;;;;;5.90;5.30;;;;;;;31.72;nan;99834.41;5018620;28;20838;-90
2022/06/18 07:17:40;;;;;;;5.63;5.00;;;;;;;31.51;nan;99831.16;5004448;28;21227;-89
2022/06/18 07:20:09;;;;;;;5.87;5.27;;;;;;;31.13;nan;99823.22;5006229;28;20319;-88
2022/06/18 07:22:35;;;;;;;5.00;4.60;;;;;;;31.24;nan;99824.34;4988603;28;20459;-89
2022/06/18 07:25:01;;;;;;;5.20;4.70;;;;;;;31.49;nan;99819.69;5006940;28;20454;-90
2022/06/18 07:27:29;;;;;;;4.73;4.43;;;;;;;31.75;nan;99817.63;5007940;28;20216;-90
2022/06/18 07:29:55;;;;;;;6.20;5.73;;;;;;;31.87;nan;99826.66;5006326;28;20304;-87
2022/06/18 07:32:21;;;;;;;4.97;4.47;;;;;;;32.00;nan;99817.53;5006901;28;20527;-87
2022/06/18 07:34:46;;;;;;;6.60;4.83;;;;;;;32.27;nan;99820.63;5009123;28;20467;-88
2022/06/18 07:37:12;;;;;;;4.73;4.43;;;;;;;32.22;nan;99809.63;5007991;28;20469;-87
2022/06/18 07:39:38;;;;;;;6.23;5.20;;;;;;;32.47;nan;99814.88;4981181;28;20200;-88
2022/06/18 07:42:05;;;;;;;10.30;5.40;;;;;;;32.64;nan;99811.44;5016226;28;20234;-89
2022/06/18 07:44:31;;;;;;;6.37;5.30;;;;;;;32.31;nan;99802.78;5013806;28;20683;-89
2022/06/18 07:47:03;;;;;;;5.50;5.00;;;;;;;32.23;nan;99805.84;5027031;28;20445;-90
2022/06/18 07:49:29;;;;;;;8.03;6.50;;;;;;;32.18;nan;99800.28;5031215;28;20213;-90
2022/06/18 07:51:54;;;;;;;4.80;4.40;;;;;;;32.50;nan;99800.81;5032108;28;20534;-89
2022/06/18 07:54:21;;;;;;;5.83;4.90;;;;;;;32.79;nan;99793.56;5032608;28;20454;-90
2022/06/18 07:56:47;;;;;;;5.40;4.50;;;;;;;32.84;nan;99790.97;5032566;28;20193;-89
2022/06/18 07:59:13;;;;;;;6.80;4.40;;;;;;;32.91;nan;99787.28;5033188;28;20490;-87
2022/06/18 08:01:39;;;;;;;4.57;4.17;;;;;;;33.04;nan;99784.31;5033057;28;20187;-86
2022/06/18 08:04:09;;;;;;;5.10;4.70;;;;;;;33.11;nan;99778.72;5018859;28;20207;-87
2022/06/18 08:06:35;;;;;;;5.83;4.70;;;;;;;33.24;nan;99773.84;5019469;28;20447;-87
2022/06/18 08:09:00;;;;;;;5.33;4.83;;;;;;;33.06;nan;99776.75;5022582;28;20475;-88
2022/06/18 08:11:29;;;;;;;4.83;4.43;;;;;;;33.02;nan;99772.84;5023735;28;20204;-86
2022/06/18 08:13:56;;;;;;;6.50;5.00;;;;;;;33.00;nan;99774.94;5014304;28;20208;-89
2022/06/18 08:16:22;;;;;;;5.60;5.20;;;;;;;33.02;nan;99770.94;5028432;28;20448;-88
2022/06/18 08:18:47;;;;;;;4.73;4.30;;;;;;;32.99;nan;99765.13;5029231;28;20476;-89
2022/06/18 08:21:35;;;;;;;5.97;5.40;;;;;;;32.91;nan;99760.06;5030232;28;20198;-88
2022/06/18 08:24:05;;;;;;;5.87;5.43;;;;;;;32.72;nan;99762.13;5013315;28;20215;-88
2022/06/18 08:26:34;;;;;;;44.40;6.30;;;;;;;32.51;nan;99755.41;5012026;28;21216;-88
2022/06/18 08:29:01;;;;;;;8.40;6.53;;;;;;;32.54;nan;99761.22;5009465;28;20452;-86
2022/06/18 08:31:29;;;;;;;10.33;5.77;;;;;;;32.66;nan;99758.47;5008658;28;20447;-88
2022/06/18 08:33:57;;;;;;;5.87;4.83;;;;;;;32.59;nan;99757.75;5006616;28;20543;-88
2022/06/18 08:36:23;;;;;;;5.23;4.83;;;;;;;32.37;nan;99750.16;4998377;28;20542;-88
2022/06/18 08:38:52;;;;;;;5.83;5.33;;;;;;;32.34;nan;99749.81;5007321;28;20247;-87
2022/06/18 08:41:23;;;;;;;5.63;5.13;;;;;;;32.55;nan;99740.28;5006387;28;20458;-87
2022/06/18 08:44:17;;;;;;;4.73;4.23;;;;;;;32.91;nan;99738.31;5005963;28;20450;-87
2022/06/18 08:47:01;;;;;;;5.40;5.00;;;;;;;32.97;nan;99743.63;5004848;28;20517;-87
2022/06/18 08:50:01;;;;;;;5.63;5.10;;;;;;;32.97;nan;99738.19;5004983;28;20550;-87
2022/06/18 08:52:33;;;;;;;6.07;5.57;;;;;;;32.85;nan;99726.50;4991894;28;20505;-87
2022/06/18 08:55:07;;;;;;;5.70;5.20;;;;;;;32.93;nan;99719.84;5004389;28;20509;-89
2022/06/18 08:57:40;;;;;;;6.20;5.70;;;;;;;33.13;nan;99735.75;5005069;28;20500;-88
2022/06/18 09:00:18;;;;;;;5.60;5.20;;;;;;;33.39;nan;99729.72;5005308;28;20981;-89
2022/06/18 09:02:54;;;;;;;9.40;8.57;;;;;;;33.60;nan;99730.16;5006654;28;21046;-89
2022/06/18 09:05:41;;;;;;;7.03;5.87;;;;;;;33.77;nan;99721.97;5004509;28;20708;-87
2022/06/18 09:08:27;;;;;;;6.10;5.60;;;;;;;33.74;nan;99715.13;5006024;28;20442;-88
2022/06/18 09:11:27;;;;;;;7.07;6.40;;;;;;;33.76;nan;99714.88;5005849;28;20491;-88
2022/06/18 09:14:13;;;;;;;5.73;5.33;;;;;;;33.77;nan;99697.47;5004256;28;20443;-88
2022/06/18 09:16:48;;;;;;;6.10;5.30;;;;;;;33.71;nan;99700.09;5004808;28;20844;-88
2022/06/18 09:19:18;;;;;;;5.73;5.23;;;;;;;33.59;nan;99693.88;5004304;28;20438;-87
2022/06/18 09:21:53;;;;;;;5.97;5.47;;;;;;;33.75;nan;99699.59;5004265;28;20439;-88
2022/06/18 09:24:24;;;;;;;5.80;4.87;;;;;;;33.96;nan;99695.28;5004579;28;20555;-87
2022/06/18 09:26:59;;;;;;;5.83;5.33;;;;;;;34.18;nan;99689.94;5004998;28;20467;-89
2022/06/18 09:29:29;;;;;;;5.13;4.50;;;;;;;34.44;nan;99691.13;5005205;28;20561;-89
2022/06/18 09:32:57;;;;;;;4.97;4.50;;;;;;;34.60;nan;99687.53;5005664;28;20491;-87
2022/06/18 09:35:31;;;;;;;4.60;4.20;;;;;;;34.65;nan;99686.75;4917915;29;20489;-89
2022/06/18 09:38:10;;;;;;;3.97;3.77;;;;;;;34.64;nan;99685.09;4925529;29;20473;-88
2022/06/18 09:40:45;;;;;;;4.47;4.07;;;;;;;34.58;nan;99685.03;4977158;28;20498;-89
2022/06/18 09:43:20;;;;;;;8.03;4.53;;;;;;;34.69;nan;99682.44;5010533;28;20447;-88
2022/06/18 09:45:53;;;;;;;4.23;3.83;;;;;;;34.78;nan;99683.63;4980383;28;20480;-90
2022/06/18 09:48:21;;;;;;;4.53;4.10;;;;;;;34.73;nan;99675.41;5005755;28;21261;-89
2022/06/18 09:50:54;;;;;;;4.30;4.00;;;;;;;34.56;nan;99681.75;5005789;28;20498;-89
2022/06/18 09:53:36;;;;;;;3.63;3.33;;;;;;;34.26;nan;99678.59;5005582;28;20240;-88
2022/06/18 09:56:08;;;;;;;4.70;3.67;;;;;;;34.25;nan;99685.94;5005920;28;20443;-87
2022/06/18 09:58:44;;;;;;;3.83;3.53;;;;;;;34.47;nan;99675.06;4984865;28;21027;-88
2022/06/18 10:01:16;;;;;;;4.07;3.77;;;;;;;34.70;nan;99684.09;4990410;28;20818;-88
2022/06/18 10:09:52;;;;;;;3.33;3.10;;;;;;;35.10;nan;99666.56;4904525;29;20526;-88
2022/06/18 10:12:32;;;;;;;6.97;4.10;;;;;;;35.28;nan;99665.38;4906555;29;20459;-87
2022/06/18 10:15:00;;;;;;;3.47;3.27;;;;;;;35.29;nan;99670.56;4956969;28;20560;-89
2022/06/18 10:17:49;;;;;;;4.00;3.70;;;;;;;35.37;nan;99664.63;4987898;28;20477;-89
2022/06/18 10:20:25;;;;;;;5.43;3.97;;;;;;;35.49;nan;99655.44;5004431;28;20460;-90
2022/06/18 10:23:39;;;;;;;5.07;4.63;;;;;;;35.51;nan;99647.78;5003116;28;20932;-91
2022/06/18 10:26:24;;;;;;;4.67;4.37;;;;;;;35.41;nan;99652.09;4958541;28;20460;-89
2022/06/18 10:29:05;;;;;;;5.37;4.80;;;;;;;35.29;nan;99653.34;5003232;28;20454;-89
2022/06/18 10:31:39;;;;;;;5.00;3.60;;;;;;;35.38;nan;99649.09;4992293;28;20460;-89
2022/06/18 10:34:20;;;;;;;5.17;4.37;;;;;;;35.35;nan;99639.50;5001962;28;20462;-88
2022/06/18 10:37:07;;;;;;;5.10;4.70;;;;;;;35.32;nan;99640.00;4987005;28;20454;-88
2022/06/18 10:39:59;;;;;;;4.70;4.37;;;;;;;35.27;nan;99639.97;5004866;28;20426;-87
2022/06/18 10:43:02;;;;;;;4.20;3.90;;;;;;;35.56;nan;99636.91;5005126;28;20501;-89
2022/06/18 10:45:46;;;;;;;4.60;4.30;;;;;;;35.70;nan;99632.69;4935414;28;20467;-88
2022/06/18 10:48:22;;;;;;;4.67;4.33;;;;;;;35.58;nan;99629.31;5002966;28;20439;-87
2022/06/18 10:50:54;;;;;;;4.50;4.20;;;;;;;35.46;nan;99624.84;5002772;28;20508;-89
2022/06/18 10:53:25;;;;;;;6.53;3.97;;;;;;;35.43;nan;99622.63;4982471;28;20511;-86
2022/06/18 10:56:14;;;;;;;4.37;4.07;;;;;;;35.63;nan;99616.50;5007648;28;20707;-88
2022/06/18 10:58:51;;;;;;;5.00;4.60;;;;;;;35.85;nan;99610.09;5012991;28;20455;-89
2022/06/18 11:01:25;;;;;;;5.23;4.20;;;;;;;35.83;nan;99615.81;5007665;28;20454;-92
2022/06/18 11:04:00;;;;;;;6.80;4.60;;;;;;;35.79;nan;99609.25;4988080;28;20484;-88
2022/06/18 11:06:27;;;;;;;4.83;4.43;;;;;;;35.78;nan;99601.28;5009899;28;21105;-90
2022/06/18 11:09:03;;;;;;;5.10;3.80;;;;;;;35.87;nan;99595.09;4999510;28;20481;-91
2022/06/18 11:11:31;;;;;;;4.20;3.90;;;;;;;35.95;nan;99584.75;5020056;28;20456;-90
2022/06/18 11:14:19;;;;;;;4.60;4.20;;;;;;;36.13;nan;99584.28;5018094;28;21083;-89
2022/06/18 11:16:51;;;;;;;5.20;3.67;;;;;;;36.12;nan;99574.47;5025441;28;20489;-89
2022/06/18 11:19:31;;;;;;;4.87;3.93;;;;;;;36.14;nan;99571.47;5032289;28;20464;-90
2022/06/18 11:22:16;;;;;;;4.73;4.33;;;;;;;36.15;nan;99576.66;5015904;28;20448;-90
2022/06/18 11:24:43;;;;;;;3.73;3.43;;;;;;;36.16;nan;99572.00;5018384;28;20432;-90
2022/06/18 11:27:17;;;;;;;4.67;4.27;;;;;;;36.22;nan;99565.47;5013759;28;20450;-87
2022/06/18 11:29:49;;;;;;;5.20;3.80;;;;;;;36.28;nan;99559.75;5008795;28;20509;-89
2022/06/18 11:32:20;;;;;;;3.70;3.40;;;;;;;36.24;nan;99558.66;5009166;28;20449;-91
2022/06/18 11:34:51;;;;;;;5.67;3.87;;;;;;;36.25;nan;99552.09;4991021;28;20498;-91
2022/06/18 11:37:26;;;;;;;3.40;3.10;;;;;;;36.29;nan;99555.91;5000187;28;20451;-90
2022/06/18 11:39:57;;;;;;;4.17;3.77;;;;;;;36.20;nan;99543.84;5010496;28;20478;-88
2022/06/18 11:42:38;;;;;;;4.23;3.97;;;;;;;36.20;nan;99537.56;5009848;28;20439;-89
2022/06/18 11:45:20;;;;;;;4.43;4.03;;;;;;;36.23;nan;99535.13;4984653;28;21099;-88
2022/06/18 11:48:03;;;;;;;4.00;3.70;;;;;;;36.13;nan;99532.34;5009297;28;20942;-89
2022/06/18 11:50:34;;;;;;;5.10;3.77;;;;;;;36.17;nan;99521.72;5023275;28;20463;-88
2022/06/18 11:53:12;;;;;;;4.70;4.30;;;;;;;36.16;nan;99509.09;5012462;28;20475;-89
2022/06/18 11:55:43;;;;;;;4.27;3.97;;;;;;;36.05;nan;99505.47;5008085;28;21158;-87
2022/06/18 11:58:18;;;;;;;5.10;4.40;;;;;;;35.95;nan;99508.19;5011381;28;20933;-89
2022/06/18 12:01:03;;;;;;;4.80;3.63;;;;;;;35.97;nan;99498.66;5014236;28;20809;-88
2022/06/18 12:03:47;;;;;;;4.87;3.33;;;;;;;36.13;nan;99498.72;5011469;28;21203;-90
2022/06/18 12:06:35;;;;;;;5.97;3.37;;;;;;;36.16;nan;99489.97;5007154;28;20436;-88
2022/06/18 12:09:04;;;;;;;4.10;3.37;;;;;;;36.10;nan;99484.47;5009327;28;20465;-88
2022/06/18 12:12:05;;;;;;;4.40;3.60;;;;;;;36.11;nan;99482.59;5008995;28;20499;-89
2022/06/18 12:14:35;;;;;;;4.13;3.73;;;;;;;36.08;nan;99474.94;5007333;28;20447;-88
2022/06/18 12:17:19;;;;;;;5.07;3.53;;;;;;;36.08;nan;99472.19;5009856;28;20450;-90
2022/06/18 12:19:58;;;;;;;4.70;3.60;;;;;;;36.05;nan;99461.75;5007349;28;20489;-89
2022/06/18 12:22:33;;;;;;;4.57;3.40;;;;;;;35.99;nan;99468.28;5010324;28;20463;-87
2022/06/18 12:25:06;;;;;;;5.67;4.00;;;;;;;35.99;nan;99451.88;5010742;28;20447;-88
2022/06/18 12:27:44;;;;;;;6.37;3.90;;;;;;;36.06;nan;99453.31;5012338;28;20610;-91
2022/06/18 12:30:15;;;;;;;3.40;3.10;;;;;;;36.12;nan;99445.94;5011566;28;20855;-88
2022/06/18 12:32:47;;;;;;;3.60;3.27;;;;;;;36.12;nan;99445.94;5010087;28;20450;-89
2022/06/18 12:35:33;;;;;;;3.80;3.30;;;;;;;36.14;nan;99449.22;5009240;28;20478;-89
2022/06/18 12:38:19;;;;;;;8.43;3.73;;;;;;;36.18;nan;99438.56;5009717;28;20440;-91